sensor_id;sensor_type;location;lat;lon;timestamp;temperature;humidity
1992;DHT22;997;48.448;8.924;2022-08-18T03:02:38;18.80;99.90
1992;DHT22;997;48.448;8.924;2022-08-18T03:05:05;18.80;99.90
1992;DHT22;997;48.448;8.924;2022-08-18T03:07:31;18.90;99.90
1992;DHT22;997;48.448;8.924;2022-08-18T03:09:57;18.90;99.90
1992;DHT22;997;48.448;8.924;2022-08-18T03:12:23;19.00;99.90
1992;DHT22;997;48.448;8.924;2022-08-18T03:14:49;19.00;99.90
1992;DHT22;997;48.448;8.924;2022-08-18T03:17:15;19.00;99.90
1992;DHT22;997;48.448;8.924;2022-08-18T03:19:41;19.10;99.90
1992;DHT22;997;48.448;8.924;2022-08-18T03:22:09;19.10;99.90
1992;DHT22;997;48.448;8.924;2022-08-18T03:24:35;19.10;99.90
1992;DHT22;997;48.448;8.924;2022-08-18T03:27:04;19.20;99.90
1992;DHT22;997;48.448;8.924;2022-08-18T03:29:32;19.20;99.90
1992;DHT22;997;48.448;8.924;2022-08-18T03:32:00;19.20;99.90
1992;DHT22;997;48.448;8.924;2022-08-18T03:34:26;19.10;99.90
1992;DHT22;997;48.448;8.924;2022-08-18T03:36:52;19.20;99.90
1992;DHT22;997;48.448;8.924;2022-08-18T03:39:18;19.30;99.90
1992;DHT22;997;48.448;8.924;2022-08-18T03:41:45;19.20;99.90
1992;DHT22;997;48.448;8.924;2022-08-18T03:44:12;19.30;99.90
1992;DHT22;997;48.448;8.924;2022-08-18T03:46:43;19.40;99.90
1992;DHT22;997;48.448;8.924;2022-08-18T03:49:10;19.40;99.90
1992;DHT22;997;48.448;8.924;2022-08-18T03:51:36;19.50;99.90
1992;DHT22;997;48.448;8.924;2022-08-18T03:54:04;19.50;99.90
1992;DHT22;997;48.448;8.924;2022-08-18T03:56:35;19.50;99.90
1992;DHT22;997;48.448;8.924;2022-08-18T03:59:07;19.50;99.90
1992;DHT22;997;48.448;8.924;2022-08-18T04:01:37;19.60;99.90
1992;DHT22;997;48.448;8.924;2022-08-18T04:04:10;19.50;99.90
1992;DHT22;997;48.448;8.924;2022-08-18T04:06:40;19.40;99.90
1992;DHT22;997;48.448;8.924;2022-08-18T04:09:10;19.50;99.90
1992;DHT22;997;48.448;8.924;2022-08-18T04:11:37;19.50;99.90
1992;DHT22;997;48.448;8.924;2022-08-18T04:14:04;19.50;99.90
1992;DHT22;997;48.448;8.924;2022-08-18T04:16:31;19.40;99.90
1992;DHT22;997;48.448;8.924;2022-08-18T04:18:57;19.40;99.90
1992;DHT22;997;48.448;8.924;2022-08-18T04:21:29;19.30;99.90
1992;DHT22;997;48.448;8.924;2022-08-18T04:23:59;19.30;99.90
1992;DHT22;997;48.448;8.924;2022-08-18T04:26:35;19.20;99.90
1992;DHT22;997;48.448;8.924;2022-08-18T04:29:02;19.20;99.90
1992;DHT22;997;48.448;8.924;2022-08-18T04:31:29;19.10;99.90
1992;DHT22;997;48.448;8.924;2022-08-18T04:33:57;19.10;99.90
1992;DHT22;997;48.448;8.924;2022-08-18T04:36:23;19.10;99.90
1992;DHT22;997;48.448;8.924;2022-08-18T04:38:49;19.10;99.90
1992;DHT22;997;48.448;8.924;2022-08-18T04:41:15;19.10;99.90
1992;DHT22;997;48.448;8.924;2022-08-18T04:43:40;19.10;99.90
1992;DHT22;997;48.448;8.924;2022-08-18T04:46:07;19.00;99.90
1992;DHT22;997;48.448;8.924;2022-08-18T04:48:38;19.00;99.90
1992;DHT22;997;48.448;8.924;2022-08-18T04:51:07;19.00;99.90
1992;DHT22;997;48.448;8.924;2022-08-18T04:53:33;19.10;99.90
1992;DHT22;997;48.448;8.924;2022-08-18T04:56:19;19.00;99.90
1992;DHT22;997;48.448;8.924;2022-08-18T04:58:54;18.90;99.90
1992;DHT22;997;48.448;8.924;2022-08-18T05:01:23;18.90;99.90
1992;DHT22;997;48.448;8.924;2022-08-18T05:03:50;18.90;99.90
1992;DHT22;997;48.448;8.924;2022-08-18T05:06:17;18.80;99.90
1992;DHT22;997;48.448;8.924;2022-08-18T05:08:44;18.70;99.90
1992;DHT22;997;48.448;8.924;2022-08-18T05:11:11;18.70;99.90
1992;DHT22;997;48.448;8.924;2022-08-18T05:13:37;18.70;99.90
1992;DHT22;997;48.448;8.924;2022-08-18T05:16:03;18.70;99.90
1992;DHT22;997;48.448;8.924;2022-08-18T05:18:32;18.70;99.90
1992;DHT22;997;48.448;8.924;2022-08-18T05:20:59;18.90;99.90
1992;DHT22;997;48.448;8.924;2022-08-18T05:23:26;19.00;99.90
1992;DHT22;997;48.448;8.924;2022-08-18T05:25:57;19.20;99.90
1992;DHT22;997;48.448;8.924;2022-08-18T05:28:23;19.30;99.90
1992;DHT22;997;48.448;8.924;2022-08-18T05:30:49;19.40;99.90
1992;DHT22;997;48.448;8.924;2022-08-18T05:33:15;19.50;99.90
1992;DHT22;997;48.448;8.924;2022-08-18T05:35:44;19.60;99.90
1992;DHT22;997;48.448;8.924;2022-08-18T05:41:24;19.60;99.90
1992;DHT22;997;48.448;8.924;2022-08-18T05:43:51;19.70;99.90
1992;DHT22;997;48.448;8.924;2022-08-18T05:46:17;19.60;99.90
1992;DHT22;997;48.448;8.924;2022-08-18T05:48:44;19.70;99.90
1992;DHT22;997;48.448;8.924;2022-08-18T05:51:24;19.70;99.90
1992;DHT22;997;48.448;8.924;2022-08-18T05:53:52;19.60;99.90
1992;DHT22;997;48.448;8.924;2022-08-18T05:56:37;19.70;99.90
1992;DHT22;997;48.448;8.924;2022-08-18T05:59:17;19.80;99.90
1992;DHT22;997;48.448;8.924;2022-08-18T06:01:49;19.80;99.90
1992;DHT22;997;48.448;8.924;2022-08-18T06:04:50;19.90;99.90
1992;DHT22;997;48.448;8.924;2022-08-18T06:07:25;20.00;99.90
1992;DHT22;997;48.448;8.924;2022-08-18T06:09:53;20.00;99.90
1992;DHT22;997;48.448;8.924;2022-08-18T06:12:32;20.10;99.90
1992;DHT22;997;48.448;8.924;2022-08-18T06:35:15;20.10;99.90
1992;DHT22;997;48.448;8.924;2022-08-18T06:41:13;20.10;99.90
1992;DHT22;997;48.448;8.924;2022-08-18T06:46:40;20.40;99.90
1992;DHT22;997;48.448;8.924;2022-08-18T06:49:11;20.10;99.90
1992;DHT22;997;48.448;8.924;2022-08-18T06:51:38;20.10;99.90
1992;DHT22;997;48.448;8.924;2022-08-18T06:54:25;20.20;99.90
1992;DHT22;997;48.448;8.924;2022-08-18T06:56:54;20.00;99.90
1992;DHT22;997;48.448;8.924;2022-08-18T07:02:17;19.90;99.90
1992;DHT22;997;48.448;8.924;2022-08-18T07:07:37;19.80;99.90
1992;DHT22;997;48.448;8.924;2022-08-18T07:12:38;19.80;99.90
1992;DHT22;997;48.448;8.924;2022-08-18T07:15:04;19.80;99.90
1992;DHT22;997;48.448;8.924;2022-08-18T07:17:34;19.90;99.90
1992;DHT22;997;48.448;8.924;2022-08-18T07:20:20;19.80;99.90
1992;DHT22;997;48.448;8.924;2022-08-18T07:25:27;19.80;99.90
1992;DHT22;997;48.448;8.924;2022-08-18T07:27:53;19.90;99.90
1992;DHT22;997;48.448;8.924;2022-08-18T07:30:26;19.90;99.90
1992;DHT22;997;48.448;8.924;2022-08-18T07:32:59;20.00;99.90
1992;DHT22;997;48.448;8.924;2022-08-18T07:35:48;20.10;99.90
1992;DHT22;997;48.448;8.924;2022-08-18T07:38:33;20.20;99.90
1992;DHT22;997;48.448;8.924;2022-08-18T07:41:32;20.30;99.90
1992;DHT22;997;48.448;8.924;2022-08-18T07:49:36;20.10;99.90
1992;DHT22;997;48.448;8.924;2022-08-18T07:52:06;20.20;99.90
1992;DHT22;997;48.448;8.924;2022-08-18T07:57:58;20.30;99.90
1992;DHT22;997;48.448;8.924;2022-08-18T08:00:38;20.60;99.90
1992;DHT22;997;48.448;8.924;2022-08-18T08:16:50;22.00;99.90
1992;DHT22;997;48.448;8.924;2022-08-18T08:19:28;22.10;99.90
1992;DHT22;997;48.448;8.924;2022-08-18T08:22:08;22.10;99.90
1992;DHT22;997;48.448;8.924;2022-08-18T08:30:19;21.90;99.90
1992;DHT22;997;48.448;8.924;2022-08-18T08:35:42;22.20;99.90
1992;DHT22;997;48.448;8.924;2022-08-18T08:38:18;22.10;99.90
1992;DHT22;997;48.448;8.924;2022-08-18T08:43:38;22.30;99.90
1992;DHT22;997;48.448;8.924;2022-08-18T08:46:16;22.30;99.90
1992;DHT22;997;48.448;8.924;2022-08-18T08:49:00;22.30;99.90
1992;DHT22;997;48.448;8.924;2022-08-18T08:51:37;22.30;99.90
1992;DHT22;997;48.448;8.924;2022-08-18T08:54:18;22.30;99.90
1992;DHT22;997;48.448;8.924;2022-08-18T08:56:46;22.30;99.90
1992;DHT22;997;48.448;8.924;2022-08-18T08:59:17;22.40;99.90
1992;DHT22;997;48.448;8.924;2022-08-18T09:02:23;22.50;99.90
1992;DHT22;997;48.448;8.924;2022-08-18T09:05:06;22.80;99.90
1992;DHT22;997;48.448;8.924;2022-08-18T09:18:23;23.40;99.90
1992;DHT22;997;48.448;8.924;2022-08-18T09:23:53;23.50;99.90
1992;DHT22;997;48.448;8.924;2022-08-18T09:26:40;23.50;99.90
1992;DHT22;997;48.448;8.924;2022-08-18T09:29:46;23.50;99.90
1992;DHT22;997;48.448;8.924;2022-08-18T09:37:51;23.90;99.90
1992;DHT22;997;48.448;8.924;2022-08-18T09:40:51;24.00;99.90
1992;DHT22;997;48.448;8.924;2022-08-18T09:52:00;23.80;99.90
1992;DHT22;997;48.448;8.924;2022-08-18T09:57:43;24.00;99.90
1992;DHT22;997;48.448;8.924;2022-08-18T10:23:55;24.80;99.90
1992;DHT22;997;48.448;8.924;2022-08-18T10:29:00;25.10;99.90
1992;DHT22;997;48.448;8.924;2022-08-18T10:31:30;25.30;99.90
1992;DHT22;997;48.448;8.924;2022-08-18T10:36:47;25.30;99.90
1992;DHT22;997;48.448;8.924;2022-08-18T10:42:04;25.80;99.90
1992;DHT22;997;48.448;8.924;2022-08-18T10:44:35;25.90;99.90
1992;DHT22;997;48.448;8.924;2022-08-18T10:47:02;26.00;99.90
1992;DHT22;997;48.448;8.924;2022-08-18T10:49:30;26.10;99.90
1992;DHT22;997;48.448;8.924;2022-08-18T10:57:29;26.30;99.90
1992;DHT22;997;48.448;8.924;2022-08-18T11:03:00;26.50;99.90
1992;DHT22;997;48.448;8.924;2022-08-18T11:05:29;26.50;99.90
1992;DHT22;997;48.448;8.924;2022-08-18T11:08:03;26.70;99.90
1992;DHT22;997;48.448;8.924;2022-08-18T11:10:46;26.80;99.90
1992;DHT22;997;48.448;8.924;2022-08-18T11:18:35;27.10;99.90
1992;DHT22;997;48.448;8.924;2022-08-18T11:21:21;27.20;99.90
1992;DHT22;997;48.448;8.924;2022-08-18T11:24:05;27.10;99.90
1992;DHT22;997;48.448;8.924;2022-08-18T11:26:32;27.10;99.90
1992;DHT22;997;48.448;8.924;2022-08-18T11:29:17;26.90;99.90
1992;DHT22;997;48.448;8.924;2022-08-18T11:31:44;26.90;99.90
1992;DHT22;997;48.448;8.924;2022-08-18T11:34:15;26.90;99.90
1992;DHT22;997;48.448;8.924;2022-08-18T11:36:41;27.00;99.90
1992;DHT22;997;48.448;8.924;2022-08-18T11:39:11;27.00;99.90
1992;DHT22;997;48.448;8.924;2022-08-18T11:41:37;27.00;99.90
1992;DHT22;997;48.448;8.924;2022-08-18T11:44:13;27.10;99.90
1992;DHT22;997;48.448;8.924;2022-08-18T11:46:41;26.90;99.90
1992;DHT22;997;48.448;8.924;2022-08-18T11:49:20;26.90;99.90
1992;DHT22;997;48.448;8.924;2022-08-18T11:51:58;26.90;99.90
1992;DHT22;997;48.448;8.924;2022-08-18T11:54:35;26.60;99.90
1992;DHT22;997;48.448;8.924;2022-08-18T11:57:28;26.50;99.90
1992;DHT22;997;48.448;8.924;2022-08-18T11:59:54;26.20;99.90
1992;DHT22;997;48.448;8.924;2022-08-18T12:02:22;26.00;99.90
1992;DHT22;997;48.448;8.924;2022-08-18T12:04:52;26.10;99.90
1992;DHT22;997;48.448;8.924;2022-08-18T12:07:27;26.00;99.90
1992;DHT22;997;48.448;8.924;2022-08-18T12:10:23;25.90;99.90
1992;DHT22;997;48.448;8.924;2022-08-18T12:12:52;25.80;99.90
1992;DHT22;997;48.448;8.924;2022-08-18T12:17:45;25.70;99.90
1992;DHT22;997;48.448;8.924;2022-08-18T12:20:12;25.60;99.90
1992;DHT22;997;48.448;8.924;2022-08-18T12:22:40;25.60;99.90
1992;DHT22;997;48.448;8.924;2022-08-18T12:25:11;25.40;99.90
1992;DHT22;997;48.448;8.924;2022-08-18T12:27:37;25.20;99.90
1992;DHT22;997;48.448;8.924;2022-08-18T12:30:05;25.20;99.90
1992;DHT22;997;48.448;8.924;2022-08-18T12:32:33;25.10;99.90
1992;DHT22;997;48.448;8.924;2022-08-18T12:34:59;25.00;99.90
1992;DHT22;997;48.448;8.924;2022-08-18T12:37:27;24.90;99.90
1992;DHT22;997;48.448;8.924;2022-08-18T12:39:54;24.70;99.90
1992;DHT22;997;48.448;8.924;2022-08-18T12:42:20;24.70;99.90
1992;DHT22;997;48.448;8.924;2022-08-18T12:44:46;24.60;99.90
1992;DHT22;997;48.448;8.924;2022-08-18T12:47:16;24.60;99.90
1992;DHT22;997;48.448;8.924;2022-08-18T12:49:42;24.60;99.90
1992;DHT22;997;48.448;8.924;2022-08-18T12:52:08;24.70;99.90
1992;DHT22;997;48.448;8.924;2022-08-18T12:54:34;24.50;99.90
1992;DHT22;997;48.448;8.924;2022-08-18T12:57:01;24.50;99.90
1992;DHT22;997;48.448;8.924;2022-08-18T12:59:27;24.30;99.90
1992;DHT22;997;48.448;8.924;2022-08-18T13:01:53;24.40;99.90
1992;DHT22;997;48.448;8.924;2022-08-18T13:04:18;24.40;99.90
1992;DHT22;997;48.448;8.924;2022-08-18T13:06:49;24.40;99.90
1992;DHT22;997;48.448;8.924;2022-08-18T13:09:16;24.40;99.90
1992;DHT22;997;48.448;8.924;2022-08-18T13:11:42;24.50;99.90
1992;DHT22;997;48.448;8.924;2022-08-18T13:14:08;24.70;99.90
1992;DHT22;997;48.448;8.924;2022-08-18T13:16:36;24.90;99.90
1992;DHT22;997;48.448;8.924;2022-08-18T13:19:03;24.90;99.90
1992;DHT22;997;48.448;8.924;2022-08-18T13:21:29;24.90;99.90
1992;DHT22;997;48.448;8.924;2022-08-18T13:23:55;25.10;99.90
1992;DHT22;997;48.448;8.924;2022-08-18T13:26:29;25.20;99.90
1992;DHT22;997;48.448;8.924;2022-08-18T13:28:55;25.30;99.90
1992;DHT22;997;48.448;8.924;2022-08-18T13:31:22;25.40;99.90
1992;DHT22;997;48.448;8.924;2022-08-18T13:33:48;25.30;99.90
1992;DHT22;997;48.448;8.924;2022-08-18T13:36:15;25.30;99.90
1992;DHT22;997;48.448;8.924;2022-08-18T13:38:41;25.30;99.90
1992;DHT22;997;48.448;8.924;2022-08-18T13:41:08;25.40;99.90
1992;DHT22;997;48.448;8.924;2022-08-18T13:43:36;25.50;99.90
1992;DHT22;997;48.448;8.924;2022-08-18T13:46:04;25.40;99.90
1992;DHT22;997;48.448;8.924;2022-08-18T13:48:31;25.40;99.90
1992;DHT22;997;48.448;8.924;2022-08-18T13:50:58;25.40;99.90
1992;DHT22;997;48.448;8.924;2022-08-18T13:53:25;25.60;99.90
1992;DHT22;997;48.448;8.924;2022-08-18T13:55:51;25.80;99.90
1992;DHT22;997;48.448;8.924;2022-08-18T13:58:18;25.90;99.90
1992;DHT22;997;48.448;8.924;2022-08-18T14:00:44;26.00;99.90
1992;DHT22;997;48.448;8.924;2022-08-18T14:03:10;26.00;99.90
1992;DHT22;997;48.448;8.924;2022-08-18T14:05:36;26.00;99.90
1992;DHT22;997;48.448;8.924;2022-08-18T14:08:03;26.10;99.90
1992;DHT22;997;48.448;8.924;2022-08-18T14:10:29;26.00;99.90
1992;DHT22;997;48.448;8.924;2022-08-18T14:12:58;25.80;99.90
1992;DHT22;997;48.448;8.924;2022-08-18T14:15:25;25.60;99.90
1992;DHT22;997;48.448;8.924;2022-08-18T14:17:52;25.40;99.90
1992;DHT22;997;48.448;8.924;2022-08-18T14:20:18;25.40;99.90
1992;DHT22;997;48.448;8.924;2022-08-18T14:23:03;25.30;99.90
1992;DHT22;997;48.448;8.924;2022-08-18T14:25:48;25.20;99.90
1992;DHT22;997;48.448;8.924;2022-08-18T14:28:32;25.30;99.90
1992;DHT22;997;48.448;8.924;2022-08-18T14:31:00;25.20;99.90
1992;DHT22;997;48.448;8.924;2022-08-18T14:33:28;25.20;99.90
1992;DHT22;997;48.448;8.924;2022-08-18T14:35:54;25.00;99.90
1992;DHT22;997;48.448;8.924;2022-08-18T14:38:20;25.00;99.90
1992;DHT22;997;48.448;8.924;2022-08-18T14:40:47;25.00;99.90
1992;DHT22;997;48.448;8.924;2022-08-18T14:43:16;25.10;99.90
1992;DHT22;997;48.448;8.924;2022-08-18T14:45:43;25.10;99.90
1992;DHT22;997;48.448;8.924;2022-08-18T14:48:14;25.30;99.90
1992;DHT22;997;48.448;8.924;2022-08-18T14:50:41;25.20;99.90
1992;DHT22;997;48.448;8.924;2022-08-18T14:53:08;25.10;99.90
1992;DHT22;997;48.448;8.924;2022-08-18T14:55:34;25.00;99.90
1992;DHT22;997;48.448;8.924;2022-08-18T14:58:00;25.00;99.90
1992;DHT22;997;48.448;8.924;2022-08-18T15:00:26;24.90;99.90
1992;DHT22;997;48.448;8.924;2022-08-18T15:02:52;25.00;99.90
1992;DHT22;997;48.448;8.924;2022-08-18T15:05:18;25.10;99.90
1992;DHT22;997;48.448;8.924;2022-08-18T15:07:44;25.20;99.90
1992;DHT22;997;48.448;8.924;2022-08-18T15:10:13;25.20;99.90
1992;DHT22;997;48.448;8.924;2022-08-18T15:12:39;25.20;99.90
1992;DHT22;997;48.448;8.924;2022-08-18T15:15:07;25.30;99.90
1992;DHT22;997;48.448;8.924;2022-08-18T15:17:38;25.40;99.90
1992;DHT22;997;48.448;8.924;2022-08-18T15:20:06;25.40;99.90
1992;DHT22;997;48.448;8.924;2022-08-18T15:22:40;25.60;99.90
1992;DHT22;997;48.448;8.924;2022-08-18T15:25:24;25.40;99.90
1992;DHT22;997;48.448;8.924;2022-08-18T15:30:38;25.40;99.90
1992;DHT22;997;48.448;8.924;2022-08-18T15:33:05;25.50;99.90
1992;DHT22;997;48.448;8.924;2022-08-18T15:35:32;25.70;99.90
1992;DHT22;997;48.448;8.924;2022-08-18T15:37:59;25.70;99.90
1992;DHT22;997;48.448;8.924;2022-08-18T15:40:26;25.80;99.90
1992;DHT22;997;48.448;8.924;2022-08-18T15:42:57;25.90;99.90
1992;DHT22;997;48.448;8.924;2022-08-18T15:45:39;25.90;99.90
1992;DHT22;997;48.448;8.924;2022-08-18T15:48:05;26.00;99.90
1992;DHT22;997;48.448;8.924;2022-08-18T15:50:31;26.00;99.90
1992;DHT22;997;48.448;8.924;2022-08-18T15:52:59;26.00;99.90
1992;DHT22;997;48.448;8.924;2022-08-18T15:55:27;26.00;99.90
1992;DHT22;997;48.448;8.924;2022-08-18T15:57:53;26.10;99.90
1992;DHT22;997;48.448;8.924;2022-08-18T16:00:22;26.10;99.90
1992;DHT22;997;48.448;8.924;2022-08-18T16:02:53;26.10;99.90
1992;DHT22;997;48.448;8.924;2022-08-18T16:05:25;26.20;99.90
1992;DHT22;997;48.448;8.924;2022-08-18T16:07:52;26.30;99.90
1992;DHT22;997;48.448;8.924;2022-08-18T16:10:21;26.00;99.90
1992;DHT22;997;48.448;8.924;2022-08-18T16:12:48;25.90;99.90
1992;DHT22;997;48.448;8.924;2022-08-18T16:15:15;26.00;99.90
1992;DHT22;997;48.448;8.924;2022-08-18T16:17:42;26.00;99.90
1992;DHT22;997;48.448;8.924;2022-08-18T16:20:08;25.90;99.90
1992;DHT22;997;48.448;8.924;2022-08-18T16:22:35;26.00;99.90
1992;DHT22;997;48.448;8.924;2022-08-18T16:25:04;26.00;99.90
1992;DHT22;997;48.448;8.924;2022-08-18T16:27:36;26.20;99.90
1992;DHT22;997;48.448;8.924;2022-08-18T16:30:07;26.40;99.90
1992;DHT22;997;48.448;8.924;2022-08-18T16:32:33;26.70;99.90
1992;DHT22;997;48.448;8.924;2022-08-18T16:34:59;26.80;99.90
1992;DHT22;997;48.448;8.924;2022-08-18T16:37:25;26.80;99.90
1992;DHT22;997;48.448;8.924;2022-08-18T16:39:55;26.70;99.90
1992;DHT22;997;48.448;8.924;2022-08-18T16:42:21;26.60;99.90
1992;DHT22;997;48.448;8.924;2022-08-18T16:44:47;26.60;99.90
1992;DHT22;997;48.448;8.924;2022-08-18T16:47:13;26.60;99.90
1992;DHT22;997;48.448;8.924;2022-08-18T16:49:45;26.60;99.90
1992;DHT22;997;48.448;8.924;2022-08-18T16:52:13;26.60;99.90
1992;DHT22;997;48.448;8.924;2022-08-18T16:54:40;26.60;99.90
1992;DHT22;997;48.448;8.924;2022-08-18T16:57:06;26.40;99.90
1992;DHT22;997;48.448;8.924;2022-08-18T16:59:32;26.20;99.90
1992;DHT22;997;48.448;8.924;2022-08-18T17:02:16;26.10;99.90
1992;DHT22;997;48.448;8.924;2022-08-18T17:05:01;25.80;99.90
1992;DHT22;997;48.448;8.924;2022-08-18T17:07:32;25.70;99.90
1992;DHT22;997;48.448;8.924;2022-08-18T17:09:59;25.60;99.90
1992;DHT22;997;48.448;8.924;2022-08-18T17:12:25;25.50;99.90
1992;DHT22;997;48.448;8.924;2022-08-18T17:14:52;25.30;99.90
1992;DHT22;997;48.448;8.924;2022-08-18T17:17:19;25.20;99.90
1992;DHT22;997;48.448;8.924;2022-08-18T17:19:48;25.20;99.90
1992;DHT22;997;48.448;8.924;2022-08-18T17:22:15;25.10;99.90
1992;DHT22;997;48.448;8.924;2022-08-18T17:24:41;25.00;99.90
1992;DHT22;997;48.448;8.924;2022-08-18T17:30:00;25.00;99.90
1992;DHT22;997;48.448;8.924;2022-08-18T17:32:52;24.80;99.90
1992;DHT22;997;48.448;8.924;2022-08-18T17:35:26;24.70;99.90
1992;DHT22;997;48.448;8.924;2022-08-18T17:37:59;24.70;99.90
1992;DHT22;997;48.448;8.924;2022-08-18T17:40:30;24.50;99.90
1992;DHT22;997;48.448;8.924;2022-08-18T17:42:56;24.40;99.90
1992;DHT22;997;48.448;8.924;2022-08-18T17:45:24;24.40;99.90
1992;DHT22;997;48.448;8.924;2022-08-18T17:48:17;24.30;99.90
1992;DHT22;997;48.448;8.924;2022-08-18T17:51:03;24.10;99.90
1992;DHT22;997;48.448;8.924;2022-08-18T17:53:50;24.00;99.90
1992;DHT22;997;48.448;8.924;2022-08-18T17:56:20;23.90;99.90
1992;DHT22;997;48.448;8.924;2022-08-18T17:58:54;23.90;99.90
1992;DHT22;997;48.448;8.924;2022-08-18T18:01:25;23.80;99.90
1992;DHT22;997;48.448;8.924;2022-08-18T18:03:51;23.80;99.90
1992;DHT22;997;48.448;8.924;2022-08-18T18:06:50;23.80;99.90
1992;DHT22;997;48.448;8.924;2022-08-18T18:11:44;23.70;99.90
1992;DHT22;997;48.448;8.924;2022-08-18T18:14:26;23.70;99.90
1992;DHT22;997;48.448;8.924;2022-08-18T18:17:06;23.70;99.90
1992;DHT22;997;48.448;8.924;2022-08-18T18:19:34;23.60;99.90
1992;DHT22;997;48.448;8.924;2022-08-18T18:22:23;23.60;99.90
1992;DHT22;997;48.448;8.924;2022-08-18T18:24:57;23.60;99.90
1992;DHT22;997;48.448;8.924;2022-08-18T18:27:29;23.70;99.90
1992;DHT22;997;48.448;8.924;2022-08-18T18:35:59;23.60;99.90
1992;DHT22;997;48.448;8.924;2022-08-18T18:38:36;23.70;99.90
1992;DHT22;997;48.448;8.924;2022-08-18T18:43:41;23.40;99.90
1992;DHT22;997;48.448;8.924;2022-08-18T18:46:29;23.40;99.90
1992;DHT22;997;48.448;8.924;2022-08-18T18:49:22;23.40;99.90
1992;DHT22;997;48.448;8.924;2022-08-18T18:55:01;23.40;99.90
1992;DHT22;997;48.448;8.924;2022-08-18T18:57:36;23.30;99.90
1992;DHT22;997;48.448;8.924;2022-08-18T19:00:23;23.30;99.90
1992;DHT22;997;48.448;8.924;2022-08-18T19:05:36;23.20;99.90
1992;DHT22;997;48.448;8.924;2022-08-18T19:11:35;23.30;99.90
1992;DHT22;997;48.448;8.924;2022-08-18T19:14:23;23.40;99.90
1992;DHT22;997;48.448;8.924;2022-08-18T19:17:11;23.40;99.90
1992;DHT22;997;48.448;8.924;2022-08-18T19:19:47;23.50;99.90
1992;DHT22;997;48.448;8.924;2022-08-18T19:24:55;23.60;99.90
1992;DHT22;997;48.448;8.924;2022-08-18T19:27:28;23.70;99.90
1992;DHT22;997;48.448;8.924;2022-08-18T19:29:58;23.50;99.90
1992;DHT22;997;48.448;8.924;2022-08-18T19:32:43;23.50;99.90
1992;DHT22;997;48.448;8.924;2022-08-18T19:35:15;23.40;99.90
1992;DHT22;997;48.448;8.924;2022-08-18T19:38:20;23.20;99.90
1992;DHT22;997;48.448;8.924;2022-08-18T19:40:55;23.10;99.90
1992;DHT22;997;48.448;8.924;2022-08-18T19:51:42;23.20;99.90
1992;DHT22;997;48.448;8.924;2022-08-18T19:57:57;23.60;99.90
1992;DHT22;997;48.448;8.924;2022-08-18T20:00:18;23.60;99.90
1992;DHT22;997;48.448;8.924;2022-08-18T20:13:47;23.40;99.90
1992;DHT22;997;48.448;8.924;2022-08-18T20:16:28;23.50;99.90
1992;DHT22;997;48.448;8.924;2022-08-18T20:18:55;23.50;99.90
1992;DHT22;997;48.448;8.924;2022-08-18T20:21:42;23.50;99.90
1992;DHT22;997;48.448;8.924;2022-08-18T20:24:37;23.60;99.90
1992;DHT22;997;48.448;8.924;2022-08-18T20:27:32;23.40;99.90
1992;DHT22;997;48.448;8.924;2022-08-18T20:36:02;23.60;99.90
1992;DHT22;997;48.448;8.924;2022-08-18T20:38:39;23.70;99.90
1992;DHT22;997;48.448;8.924;2022-08-18T20:58:18;23.70;99.90
1992;DHT22;997;48.448;8.924;2022-08-18T21:00:47;23.80;99.90
1992;DHT22;997;48.448;8.924;2022-08-18T21:03:18;23.80;99.90
1992;DHT22;997;48.448;8.924;2022-08-18T21:05:55;23.80;99.90
1992;DHT22;997;48.448;8.924;2022-08-18T21:08:27;23.70;99.90
1992;DHT22;997;48.448;8.924;2022-08-18T21:11:42;23.60;99.90
1992;DHT22;997;48.448;8.924;2022-08-18T21:16:33;23.60;99.90
1992;DHT22;997;48.448;8.924;2022-08-18T21:19:02;23.60;99.90
1992;DHT22;997;48.448;8.924;2022-08-18T21:21:48;23.50;99.90
1992;DHT22;997;48.448;8.924;2022-08-18T21:26:45;23.50;99.90
1992;DHT22;997;48.448;8.924;2022-08-18T21:29:12;23.50;99.90
